地図

経路データ

SID SEASON NUMBER BASIN SUBBASIN NAME ISO_TIME NATURE LAT LON WMO_WIND WMO_PRES WMO_AGENCY TRACK_TYPE DIST2LAND LANDFALL IFLAG USA_AGENCY USA_ATCF_ID USA_LAT USA_LON USA_RECORD USA_STATUS USA_WIND USA_PRES USA_SSHS USA_R34_NE USA_R34_SE USA_R34_SW USA_R34_NW USA_R50_NE USA_R50_SE USA_R50_SW USA_R50_NW USA_R64_NE USA_R64_SE USA_R64_SW USA_R64_NW USA_POCI USA_ROCI USA_RMW USA_EYE TOKYO_LAT TOKYO_LON TOKYO_GRADE TOKYO_WIND TOKYO_PRES TOKYO_R50_DIR TOKYO_R50_LONG TOKYO_R50_SHORT TOKYO_R30_DIR TOKYO_R30_LONG TOKYO_R30_SHORT TOKYO_LAND CMA_LAT CMA_LON CMA_CAT CMA_WIND CMA_PRES HKO_LAT HKO_LON HKO_CAT HKO_WIND HKO_PRES NEWDELHI_LAT NEWDELHI_LON NEWDELHI_GRADE NEWDELHI_WIND NEWDELHI_PRES NEWDELHI_CI NEWDELHI_DP NEWDELHI_POCI REUNION_LAT REUNION_LON REUNION_TYPE REUNION_WIND REUNION_PRES REUNION_TNUM REUNION_CI REUNION_RMW REUNION_R34_NE REUNION_R34_SE REUNION_R34_SW REUNION_R34_NW REUNION_R50_NE REUNION_R50_SE REUNION_R50_SW REUNION_R50_NW REUNION_R64_NE REUNION_R64_SE REUNION_R64_SW REUNION_R64_NW BOM_LAT BOM_LON BOM_TYPE BOM_WIND BOM_PRES BOM_TNUM BOM_CI BOM_RMW BOM_R34_NE BOM_R34_SE BOM_R34_SW BOM_R34_NW BOM_R50_NE BOM_R50_SE BOM_R50_SW BOM_R50_NW BOM_R64_NE BOM_R64_SE BOM_R64_SW BOM_R64_NW BOM_ROCI BOM_POCI BOM_EYE BOM_POS_METHOD BOM_PRES_METHOD NADI_LAT NADI_LON NADI_CAT NADI_WIND NADI_PRES WELLINGTON_LAT WELLINGTON_LON WELLINGTON_WIND WELLINGTON_PRES DS824_LAT DS824_LON DS824_STAGE DS824_WIND DS824_PRES TD9636_LAT TD9636_LON TD9636_STAGE TD9636_WIND TD9636_PRES TD9635_LAT TD9635_LON TD9635_WIND TD9635_PRES TD9635_ROCI NEUMANN_LAT NEUMANN_LON NEUMANN_CLASS NEUMANN_WIND NEUMANN_PRES MLC_LAT MLC_LON MLC_CLASS MLC_WIND MLC_PRES USA_GUST BOM_GUST BOM_GUST_PER REUNION_GUST REUNION_GUST_PER USA_SEAHGT USA_SEARAD_NE USA_SEARAD_SE USA_SEARAD_SW USA_SEARAD_NW STORM_SPEED STORM_DIR
1917032S13418 1917 8 SI MM NOT_NAMED 1917-01-31 18:00:00 NR -12.6000 58.1000 main 840 828 __________O___ -1 -12.6000 58.1000 7 5 246
1917032S13418 1917 8 SI MM NOT_NAMED 1917-01-31 21:00:00 NR -12.7080 57.8486 main 828 812 __________P___ -1 -12.7080 57.8486 7 5 247
1917032S13418 1917 8 SI MM NOT_NAMED 1917-02-01 00:00:00 NR -12.8127 57.5977 main 812 787 __________P___ -1 -12.8127 57.5977 7 5 247
1917032S13418 1917 8 SI MM NOT_NAMED 1917-02-01 03:00:00 NR -12.9111 57.3479 main 777 753 __________P___ -1 -12.9111 57.3479 7 5 249
1917032S13418 1917 8 SI MM NOT_NAMED 1917-02-01 06:00:00 NR -13.0000 57.1000 main 753 729 __________O___ -1 -13.0000 57.1000 7 5 251
1917032S13418 1917 8 SI MM NOT_NAMED 1917-02-01 09:00:00 NR -13.0780 56.8539 main 729 698 __________P___ -1 -13.0780 56.8539 7 5 253
1917032S13418 1917 8 SI MM NOT_NAMED 1917-02-01 12:00:00 NR -13.1499 56.6073 main 698 674 __________P___ -1 -13.1499 56.6073 7 5 253
1917032S13418 1917 8 SI MM NOT_NAMED 1917-02-01 15:00:00 NR -13.2218 56.3571 main 674 640 __________P___ -1 -13.2218 56.3571 7 5 253
1917032S13418 1917 8 SI MM NOT_NAMED 1917-02-01 18:00:00 NR -13.3000 56.1000 main 640 605 __________O___ -1 -13.3000 56.1000 7 5 251
1917032S13418 1917 8 SI MM NOT_NAMED 1917-02-01 21:00:00 NR -13.3968 55.8322 main 605 581 __________P___ -1 -13.3968 55.8322 7 6 249
1917032S13418 1917 8 SI MM NOT_NAMED 1917-02-02 00:00:00 NR -13.4999 55.5575 main 581 547 __________P___ -1 -13.4999 55.5575 7 6 249
1917032S13418 1917 8 SI MM NOT_NAMED 1917-02-02 03:00:00 NR -13.6031 55.2791 main 547 513 __________P___ -1 -13.6031 55.2791 7 6 250
1917032S13418 1917 8 SI MM NOT_NAMED 1917-02-02 06:00:00 NR -13.7000 55.0000 main 513 478 __________O___ -1 -13.7000 55.0000 7 6 252
1917032S13418 1917 8 SI MM NOT_NAMED 1917-02-02 09:00:00 NR -13.7862 54.7128 main 478 444 __________P___ -1 -13.7862 54.7128 7 6 253
1917032S13418 1917 8 SI MM NOT_NAMED 1917-02-02 12:00:00 NR -13.8650 54.4275 main 444 424 __________P___ -1 -13.8650 54.4275 7 6 255
1917032S13418 1917 8 SI MM NOT_NAMED 1917-02-02 15:00:00 NR -13.9363 54.1534 main 424 389 __________P___ -1 -13.9363 54.1534 7 5 255
1917032S13418 1917 8 SI MM NOT_NAMED 1917-02-02 18:00:00 NR -14.0000 53.9000 main 389 369 __________O___ -1 -14.0000 53.9000 7 5 256
1917032S13418 1917 8 SI MM NOT_NAMED 1917-02-02 21:00:00 NR -14.0447 53.6985 main 369 345 __________P___ -1 -14.0447 53.6985 7 4 257
1917032S13418 1917 8 SI MM NOT_NAMED 1917-02-03 00:00:00 NR -14.0846 53.5147 main 345 325 __________P___ -1 -14.0846 53.5147 7 4 257
1917032S13418 1917 8 SI MM NOT_NAMED 1917-02-03 03:00:00 NR -14.1322 53.3235 main 325 301 __________P___ -1 -14.1322 53.3235 7 4 254
1917032S13418 1917 8 SI MM NOT_NAMED 1917-02-03 06:00:00 NR -14.2000 53.1000 main 301 267 __________O___ -1 -14.2000 53.1000 7 5 250
1917032S13418 1917 8 SI MM NOT_NAMED 1917-02-03 09:00:00 NR -14.3117 52.8071 main 267 233 __________P___ -1 -14.3117 52.8071 7 6 248
1917032S13418 1917 8 SI MM NOT_NAMED 1917-02-03 12:00:00 NR -14.4426 52.4803 main 233 194 __________P___ -1 -14.4426 52.4803 7 7 248
1917032S13418 1917 8 SI MM NOT_NAMED 1917-02-03 15:00:00 NR -14.5773 52.1383 main 184 150 __________P___ -1 -14.5773 52.1383 7 7 249
1917032S13418 1917 8 SI MM NOT_NAMED 1917-02-03 18:00:00 NR -14.7000 51.8000 main 150 126 __________O___ -1 -14.7000 51.8000 7 6 252
1917032S13418 1917 8 SI MM NOT_NAMED 1917-02-03 21:00:00 NR -14.7601 51.5488 main 116 96 __________P___ -1 -14.7601 51.5488 7 5 257
1917032S13418 1917 8 SI MM NOT_NAMED 1917-02-04 00:00:00 NR -14.8111 51.2961 main 96 63 __________P___ -1 -14.8111 51.2961 7 5 257
1917032S13418 1917 8 SI MM NOT_NAMED 1917-02-04 03:00:00 NR -14.8817 50.9954 main 63 24 __________P___ -1 -14.8817 50.9954 7 7 254
1917032S13418 1917 8 SI MM NOT_NAMED 1917-02-04 06:00:00 NR -15.0000 50.6000 main 24 0 __________O___ -1 -15.0000 50.6000 7 10 251
1917032S13418 1917 8 SI MM NOT_NAMED 1917-02-04 09:00:00 NR -15.2088 50.0271 main 0 0 __________P___ -1 -15.2088 50.0271 7 13 249
1917032S13418 1917 8 SI MM NOT_NAMED 1917-02-04 12:00:00 NR -15.4640 49.3612 main 0 0 __________P___ -1 -15.4640 49.3612 7 14 248
1917032S13418 1917 8 SI MM NOT_NAMED 1917-02-04 15:00:00 NR -15.7370 48.6645 main 0 0 __________P___ -1 -15.7370 48.6645 7 14 248
1917032S13418 1917 8 SI MM NOT_NAMED 1917-02-04 18:00:00 NR -16.0000 48.0000 main 0 0 __________O___ -1 -16.0000 48.0000 7 13 248
1917032S13418 1917 8 SI MM NOT_NAMED 1917-02-04 21:00:00 NR -16.2055 47.4480 main 0 0 __________P___ -1 -16.2055 47.4480 7 11 249
1917032S13418 1917 8 SI MM NOT_NAMED 1917-02-05 00:00:00 NR -16.3990 46.9390 main 0 0 __________P___ -1 -16.3990 46.9390 7 10 248
1917032S13418 1917 8 SI MM NOT_NAMED 1917-02-05 03:00:00 NR -16.5931 46.4606 main 0 0 __________P___ -1 -16.5931 46.4606 7 10 246
1917032S13418 1917 8 SI MM NOT_NAMED 1917-02-05 06:00:00 NR -16.8000 46.0000 main 0 0 __________O___ -1 -16.8000 46.0000 7 10 245
1917032S13418 1917 8 SI MM NOT_NAMED 1917-02-05 09:00:00 NR -17.0153 45.5030 main 0 0 __________P___ -1 -17.0153 45.5030 7 10 244
1917032S13418 1917 8 SI MM NOT_NAMED 1917-02-05 12:00:00 NR -17.2476 45.0248 main 0 0 __________P___ -1 -17.2476 45.0248 7 10 241
1917032S13418 1917 8 SI MM NOT_NAMED 1917-02-05 15:00:00 NR -17.5060 44.5842 main 0 0 __________P___ -1 -17.5060 44.5842 7 10 235
1917032S13418 1917 8 SI MM NOT_NAMED 1917-02-05 18:00:00 NR -17.8000 44.2000 main 0 0 __________O___ -1 -17.8000 44.2000 7 10 230
1917032S13418 1917 8 SI MM NOT_NAMED 1917-02-05 21:00:00 NR -18.1185 43.8122 main 21 21 __________P___ -1 -18.1185 43.8122 7 10 225
1917032S13418 1917 8 SI MM NOT_NAMED 1917-02-06 00:00:00 NR -18.4746 43.4916 main 53 53 __________P___ -1 -18.4746 43.4916 7 9 214
1917032S13418 1917 8 SI MM NOT_NAMED 1917-02-06 03:00:00 NR -18.8684 43.2752 main 92 92 __________P___ -1 -18.8684 43.2752 7 9 199
1917032S13418 1917 8 SI MM NOT_NAMED 1917-02-06 06:00:00 NR -19.3000 43.2000 main 107 107 __________O___ -1 -19.3000 43.2000 7 9 183
1917032S13418 1917 8 SI MM NOT_NAMED 1917-02-06 09:00:00 NR -19.7307 43.2423 main 124 80 __________P___ -1 -19.7307 43.2423 7 9 166
1917032S13418 1917 8 SI MM NOT_NAMED 1917-02-06 12:00:00 NR -20.2012 43.4322 main 80 23 __________P___ -1 -20.2012 43.4322 7 11 154
1917032S13418 1917 8 SI MM NOT_NAMED 1917-02-06 15:00:00 NR -20.7211 43.7560 main 15 0 __________P___ -1 -20.7211 43.7560 7 13 147
1917032S13418 1917 8 SI MM NOT_NAMED 1917-02-06 18:00:00 NR -21.3000 44.2000 main 0 0 __________O___ -1 -21.3000 44.2000 7 16 144
1917032S13418 1917 8 SI MM NOT_NAMED 1917-02-06 21:00:00 NR -21.9804 44.7481 main 0 0 __________P___ -1 -21.9804 44.7481 7 18 142
1917032S13418 1917 8 SI MM NOT_NAMED 1917-02-07 00:00:00 NR -22.7095 45.4056 main 0 0 __________P___ -1 -22.7095 45.4056 7 19 139
1917032S13418 1917 8 SI MM NOT_NAMED 1917-02-07 03:00:00 NR -23.4336 46.1108 main 0 0 __________P___ -1 -23.4336 46.1108 7 19 137
1917032S13418 1917 8 SI MM NOT_NAMED 1917-02-07 06:00:00 NR -24.1000 46.8000 main 0 0 __________O___ -1 -24.1000 46.8000 7 17 137
1917032S13418 1917 8 SI MM NOT_NAMED 1917-02-07 09:00:00 NR -24.6628 47.3850 main 20 20 __________P___ -1 -24.6628 47.3850 7 15 136
1917032S13418 1917 8 SI MM NOT_NAMED 1917-02-07 12:00:00 NR -25.1609 47.9401 main 83 83 __________P___ -1 -25.1609 47.9401 7 14 134
1917032S13418 1917 8 SI MM NOT_NAMED 1917-02-07 15:00:00 NR -25.6036 48.4751 main 155 155 __________P___ -1 -25.6036 48.4751 7 13 131
1917032S13418 1917 8 SI MM NOT_NAMED 1917-02-07 18:00:00 NR -26.0000 49.0000 main 220 220 __________O___ -1 -26.0000 49.0000 7 12 129
1917032S13418 1917 8 SI MM NOT_NAMED 1917-02-07 21:00:00 NR -26.3716 49.5419 main 286 286 __________P___ -1 -26.3716 49.5419 7 12 126
1917032S13418 1917 8 SI MM NOT_NAMED 1917-02-08 00:00:00 NR -26.7018 50.0745 main 355 355 __________P___ -1 -26.7018 50.0745 7 11 124
1917032S13418 1917 8 SI MM NOT_NAMED 1917-02-08 03:00:00 NR -27.0061 50.5948 main 414 414 __________P___ -1 -27.0061 50.5948 7 11 123
1917032S13418 1917 8 SI MM NOT_NAMED 1917-02-08 06:00:00 NR -27.3000 51.1000 main 474 474 __________O___ -1 -27.3000 51.1000 7 11 124
1917032S13418 1917 8 SI MM NOT_NAMED 1917-02-08 09:00:00 NR -27.6147 51.5982 main 533 533 __________P___ -1 -27.6147 51.5982 7 11 126
1917032S13418 1917 8 SI MM NOT_NAMED 1917-02-08 12:00:00 NR -27.9218 52.0808 main 593 593 __________P___ -1 -27.9218 52.0808 7 10 126
1917032S13418 1917 8 SI MM NOT_NAMED 1917-02-08 15:00:00 NR -28.2180 52.5480 main 644 644 __________P___ -1 -28.2180 52.5480 7 10 126
1917032S13418 1917 8 SI MM NOT_NAMED 1917-02-08 18:00:00 NR -28.5000 53.0000 main 703 703 __________O___ -1 -28.5000 53.0000 7 10 125
1917032S13418 1917 8 SI MM NOT_NAMED 1917-02-08 21:00:00 NR -28.7719 53.4442 main 754 754 __________P___ -1 -28.7719 53.4442 7 9 125
1917032S13418 1917 8 SI MM NOT_NAMED 1917-02-09 00:00:00 NR -29.0293 53.8734 main 807 807 __________P___ -1 -29.0293 53.8734 7 9 124
1917032S13418 1917 8 SI MM NOT_NAMED 1917-02-09 03:00:00 NR -29.2720 54.2909 main 858 858 __________P___ -1 -29.2720 54.2909 7 9 123
1917032S13418 1917 8 SI MM NOT_NAMED 1917-02-09 06:00:00 NR -29.5000 54.7000 main 902 902 __________O___ -1 -29.5000 54.7000 7 8 122
1917032S13418 1917 8 SI MM NOT_NAMED 1917-02-09 09:00:00 NR -29.7138 55.1040 main 928 928 __________P___ -1 -29.7138 55.1040 7 8 121
1917032S13418 1917 8 SI MM NOT_NAMED 1917-02-09 12:00:00 NR -29.9142 55.5012 main 949 949 __________P___ -1 -29.9142 55.5012 7 8 120
1917032S13418 1917 8 SI MM NOT_NAMED 1917-02-09 15:00:00 NR -30.1076 55.8977 main 972 972 __________P___ -1 -30.1076 55.8977 7 8 119
1917032S13418 1917 8 SI MM NOT_NAMED 1917-02-09 18:00:00 NR -30.3000 56.3000 main 996 996 __________O___ -1 -30.3000 56.3000 7 8 119
1917032S13418 1917 8 SI MM NOT_NAMED 1917-02-09 21:00:00 NR -30.4964 56.7130 main 1022 1022 __________P___ -1 -30.4964 56.7130 7 8 119
1917032S13418 1917 8 SI MM NOT_NAMED 1917-02-10 00:00:00 NR -30.6963 57.1357 main 1049 1049 __________P___ -1 -30.6963 57.1357 7 8 119
1917032S13418 1917 8 SI MM NOT_NAMED 1917-02-10 03:00:00 NR -30.8981 57.5656 main 1079 1079 __________P___ -1 -30.8981 57.5656 7 8 119
1917032S13418 1917 8 SI MM NOT_NAMED 1917-02-10 06:00:00 NR -31.1000 58.0000 main 1109 __________O___ -1 -31.1000 58.0000 7 8 119

IBTrACS Databaseについて

本データベースは、米国NOAAが公開する1842年以降の世界の熱帯低気圧のベストトラックデータアーカイブInternational Best Track Archive for Climate Stewardship (IBTrACS)を、ウェブで閲覧しやすい形式に変換したものです。

最終更新日:2021-11-26